Time;durP1;ratioP1;P1;durP2;ratioP2;P2;SDS_P1;SDS_P2;PMS_P1;PMS_P2;Temp;Humidity;BMP_temperature;BMP_pressure;BME280_temperature;BME280_humidity;BME280_pressure;Samples;Min_cycle;Max_cycle;Signal;HPM_P1;HPM_P2
2021/12/04 00:00:51;;;;;;;2.60;2.40;;;;;;;3.71;77.79;100518.63;1767172;80;20873;-75
2021/12/04 00:03:20;;;;;;;2.50;2.30;;;;;;;3.69;78.34;100520.41;1772189;81;21354;-75
2021/12/04 00:05:55;;;;;;;1.98;1.87;;;;;;;3.65;78.36;100517.09;1772853;81;20913;-76
2021/12/04 00:08:24;;;;;;;3.00;2.72;;;;;;;3.62;78.58;100517.17;1772256;81;20988;-77
2021/12/04 00:10:50;;;;;;;4.47;3.15;;;;;;;3.58;78.69;100518.20;1772482;81;21149;-75
2021/12/04 00:14:36;;;;;;;3.62;3.33;;;;;;;3.60;78.73;100509.05;1854679;77;22690;-74
2021/12/04 00:17:04;;;;;;;3.20;2.90;;;;;;;3.53;78.85;100517.06;1822254;78;20966;-75
2021/12/04 00:19:31;;;;;;;3.10;2.80;;;;;;;3.56;78.69;100526.47;1822341;78;21931;-76
2021/12/04 00:21:58;;;;;;;3.27;3.08;;;;;;;3.58;78.80;100524.69;1821996;78;20856;-74
2021/12/04 00:24:25;;;;;;;2.77;2.58;;;;;;;3.62;78.86;100522.81;1822141;78;20887;-75
2021/12/04 00:26:53;;;;;;;3.40;3.10;;;;;;;3.63;79.06;100521.48;1822075;78;20903;-75
2021/12/04 00:29:21;;;;;;;2.92;2.67;;;;;;;3.62;78.81;100524.95;1822062;78;20927;-74
2021/12/04 00:31:50;;;;;;;2.75;2.55;;;;;;;3.59;78.73;100525.52;1822156;78;21318;-75
2021/12/04 00:34:18;;;;;;;3.42;3.12;;;;;;;3.55;78.76;100529.95;1821953;78;20923;-75
2021/12/04 00:50:17;;;;;;;3.08;2.87;;;;;;;3.28;79.05;100541.59;1822114;78;20970;-74
2021/12/04 00:52:44;;;;;;;4.12;3.72;;;;;;;3.23;79.48;100536.17;1821842;78;20947;-75
2021/12/04 00:55:13;;;;;;;5.08;4.50;;;;;;;3.22;79.74;100535.75;1822266;78;21349;-75
2021/12/04 00:57:41;;;;;;;3.75;3.45;;;;;;;3.22;79.95;100534.00;1822179;78;21108;-75
2021/12/04 01:00:09;;;;;;;4.12;3.70;;;;;;;3.27;80.19;100540.37;1822028;78;20884;-75
2021/12/04 01:02:36;;;;;;;4.28;3.87;;;;;;;3.32;80.31;100541.91;1822489;78;20926;-75
2021/12/04 01:05:04;;;;;;;3.83;3.52;;;;;;;3.39;80.17;100541.72;1822110;78;20963;-75
2021/12/04 01:07:33;;;;;;;4.53;4.03;;;;;;;3.41;80.15;100545.11;1822162;78;20966;-74
2021/12/04 01:10:04;;;;;;;4.08;3.67;;;;;;;3.41;79.92;100540.77;1822465;78;21127;-75
2021/12/04 01:12:31;;;;;;;4.37;3.98;;;;;;;3.35;79.68;100542.25;1822323;78;21061;-76
2021/12/04 01:14:58;;;;;;;5.08;4.58;;;;;;;3.30;79.80;100551.92;1825465;78;20907;-75
2021/12/04 01:17:25;;;;;;;4.80;4.40;;;;;;;3.27;79.96;100555.46;1825718;78;20919;-75
2021/12/04 01:19:51;;;;;;;4.72;3.90;;;;;;;3.23;80.13;100564.67;1825576;78;21451;-76
2021/12/04 01:22:20;;;;;;;4.50;4.10;;;;;;;3.23;80.34;100565.97;1825948;78;21101;-74
2021/12/04 01:24:49;;;;;;;4.80;4.33;;;;;;;3.21;80.28;100558.23;1825133;78;20930;-74
2021/12/04 01:27:16;;;;;;;4.72;4.22;;;;;;;3.19;80.35;100565.20;1825268;78;21387;-75
2021/12/04 01:29:42;;;;;;;4.95;4.10;;;;;;;3.16;80.45;100556.66;1824867;78;20947;-75
2021/12/04 01:32:11;;;;;;;4.22;3.92;;;;;;;3.14;80.59;100552.84;1825131;78;20907;-74
2021/12/04 01:34:38;;;;;;;6.08;5.50;;;;;;;3.17;80.81;100555.33;1824865;78;21545;-74
2021/12/04 01:37:05;;;;;;;6.03;5.33;;;;;;;3.21;80.93;100557.39;1825229;78;20868;-75
2021/12/04 01:39:33;;;;;;;4.30;3.87;;;;;;;3.29;80.91;100566.63;1824793;78;20958;-73
2021/12/04 01:42:00;;;;;;;7.65;4.67;;;;;;;3.35;80.80;100582.42;1825095;78;20883;-73
2021/12/04 01:44:27;;;;;;;5.67;5.17;;;;;;;3.33;80.44;100573.84;1824883;78;20856;-74
2021/12/04 01:46:56;;;;;;;5.60;5.10;;;;;;;3.29;80.41;100577.00;1825308;78;21512;-74
2021/12/04 01:49:24;;;;;;;5.97;5.37;;;;;;;3.28;80.56;100565.38;1824796;78;20982;-74
2021/12/04 01:51:51;;;;;;;6.22;5.62;;;;;;;3.30;80.73;100551.47;1825064;78;20979;-73
2021/12/04 01:54:18;;;;;;;5.83;5.22;;;;;;;3.30;80.63;100550.17;1825092;78;20904;-74
2021/12/04 01:56:44;;;;;;;6.30;4.95;;;;;;;3.32;80.69;100548.84;1825269;78;21424;-74
2021/12/04 01:59:12;;;;;;;5.28;4.78;;;;;;;3.35;80.62;100548.73;1824914;78;21519;-76
2021/12/04 02:01:39;;;;;;;6.00;5.30;;;;;;;3.34;80.59;100561.76;1824971;78;20867;-74
2021/12/04 02:04:06;;;;;;;5.33;4.83;;;;;;;3.33;80.53;100581.62;1824867;78;20844;-74
2021/12/04 02:06:33;;;;;;;5.92;5.40;;;;;;;3.32;80.38;100587.72;1824949;78;21416;-74
2021/12/04 02:09:00;;;;;;;5.30;4.80;;;;;;;3.25;80.34;100581.87;1825331;78;20824;-75
2021/12/04 02:11:27;;;;;;;6.25;5.65;;;;;;;3.25;80.51;100577.14;1824975;78;21152;-75
2021/12/04 02:13:54;;;;;;;6.87;5.42;;;;;;;3.31;80.55;100581.69;1823092;78;21499;-75
2021/12/04 02:16:23;;;;;;;5.55;5.15;;;;;;;3.32;80.55;100591.14;1821399;78;20923;-75
2021/12/04 02:18:50;;;;;;;6.35;5.75;;;;;;;3.34;80.68;100605.36;1821329;78;20955;-75
2021/12/04 02:21:16;;;;;;;5.97;5.50;;;;;;;3.37;80.71;100627.74;1821440;78;20907;-75
2021/12/04 02:23:43;;;;;;;7.40;6.35;;;;;;;3.40;80.52;100634.99;1821471;78;21483;-75
2021/12/04 02:26:12;;;;;;;5.85;5.35;;;;;;;3.39;80.31;100647.98;1821401;78;21021;-74
2021/12/04 02:28:43;;;;;;;6.05;5.47;;;;;;;3.37;80.12;100649.77;1821401;78;20828;-75
2021/12/04 02:31:10;;;;;;;6.60;5.92;;;;;;;3.35;80.00;100648.97;1821977;78;20888;-75
2021/12/04 02:33:37;;;;;;;5.10;4.70;;;;;;;3.30;80.16;100650.41;1821523;78;20851;-75
2021/12/04 02:36:07;;;;;;;5.42;4.92;;;;;;;3.27;80.21;100631.07;1821408;78;21560;-75
2021/12/04 02:38:34;;;;;;;5.85;5.12;;;;;;;3.23;80.73;100621.69;1821487;78;20872;-76
2021/12/04 02:41:01;;;;;;;5.78;5.25;;;;;;;3.28;81.15;100647.00;1821325;78;21475;-75
2021/12/04 02:43:33;;;;;;;6.28;5.78;;;;;;;3.35;80.87;100654.16;1821326;78;21032;-75
2021/12/04 02:46:00;;;;;;;7.30;5.72;;;;;;;3.34;80.56;100653.31;1821891;78;20832;-74
2021/12/04 02:48:28;;;;;;;6.03;5.42;;;;;;;3.28;80.41;100665.15;1821331;78;21084;-75
2021/12/04 02:50:55;;;;;;;5.35;4.85;;;;;;;3.25;80.38;100676.91;1821652;78;20970;-76
2021/12/04 02:53:22;;;;;;;4.75;4.35;;;;;;;3.22;80.46;100686.05;1821311;78;20923;-74
2021/12/04 02:55:50;;;;;;;5.20;4.70;;;;;;;3.20;80.61;100694.31;1821744;78;21334;-75
2021/12/04 02:58:17;;;;;;;5.15;4.67;;;;;;;3.20;80.69;100704.67;1821347;78;20868;-75
2021/12/04 03:00:48;;;;;;;5.62;4.83;;;;;;;3.22;80.77;100701.59;1821745;78;21392;-75
2021/12/04 03:03:17;;;;;;;5.60;5.08;;;;;;;3.21;80.48;100700.75;1821561;78;20876;-74
2021/12/04 03:05:49;;;;;;;5.35;4.85;;;;;;;3.18;80.53;100705.16;1821423;78;20967;-74
2021/12/04 03:08:15;;;;;;;5.45;4.95;;;;;;;3.19;80.89;100702.53;1821522;78;21409;-74
2021/12/04 03:10:42;;;;;;;6.15;5.40;;;;;;;3.20;80.64;100707.27;1821379;78;20955;-74
2021/12/04 03:13:10;;;;;;;5.75;5.25;;;;;;;3.19;80.76;100714.65;1821431;78;21476;-73
2021/12/04 03:15:44;;;;;;;5.55;5.05;;;;;;;3.20;80.56;100703.38;1821400;78;20910;-75
2021/12/04 03:18:06;;;;;;;5.45;5.03;;;;;;;3.16;80.43;100697.45;1819329;78;20879;-74
2021/12/04 03:20:40;;;;;;;5.78;5.22;;;;;;;3.18;80.46;100697.39;1821268;78;21010;-74
2021/12/04 03:23:02;;;;;;;5.50;5.00;;;;;;;3.18;80.44;100695.67;1820234;78;21091;-74
2021/12/04 03:25:30;;;;;;;5.28;4.78;;;;;;;3.21;80.63;100707.69;1821532;78;21337;-74
2021/12/04 03:28:00;;;;;;;5.12;4.62;;;;;;;3.22;80.49;100706.33;1821398;78;21006;-74
2021/12/04 03:30:39;;;;;;;5.12;4.72;;;;;;;3.19;80.39;100712.06;1821614;78;20923;-74
2021/12/04 03:40:59;;;;;;;6.00;5.50;;;;;;;3.07;80.32;100706.33;1821311;78;20907;-75
2021/12/04 03:43:25;;;;;;;6.53;5.62;;;;;;;3.05;80.21;100709.41;1821360;78;20844;-75
2021/12/04 03:45:57;;;;;;;7.12;6.45;;;;;;;3.02;80.42;100712.52;1821606;78;20886;-75
2021/12/04 03:51:03;;;;;;;6.87;6.17;;;;;;;3.01;80.43;100700.47;1821515;78;21754;-75
2021/12/04 03:53:30;;;;;;;6.25;5.67;;;;;;;2.99;80.40;100703.09;1821243;78;20907;-75
2021/12/04 03:55:57;;;;;;;6.87;6.20;;;;;;;2.97;80.38;100707.46;1821295;78;20911;-74
2021/12/04 03:58:24;;;;;;;7.08;6.45;;;;;;;2.96;80.34;100701.02;1821778;78;20916;-74
2021/12/04 04:00:51;;;;;;;6.65;6.05;;;;;;;2.94;80.32;100704.13;1821488;78;21002;-76
2021/12/04 04:03:18;;;;;;;6.97;6.37;;;;;;;2.92;80.34;100700.72;1821310;78;21988;-75
2021/12/04 04:05:45;;;;;;;6.42;5.90;;;;;;;2.87;80.37;100704.73;1821185;78;20962;-75
2021/12/04 04:08:12;;;;;;;7.00;6.40;;;;;;;2.85;80.42;100704.77;1821522;78;20983;-76
2021/12/04 04:10:39;;;;;;;7.22;6.53;;;;;;;2.85;80.43;100712.53;1821236;78;20891;-75
2021/12/04 04:13:08;;;;;;;6.97;6.33;;;;;;;2.86;80.39;100711.63;1821350;78;20939;-73
2021/12/04 04:15:34;;;;;;;7.10;6.50;;;;;;;2.85;80.38;100709.95;1821481;78;21822;-75
2021/12/04 04:18:01;;;;;;;7.17;6.53;;;;;;;2.85;80.45;100712.53;1821258;78;20994;-74
2021/12/04 04:20:29;;;;;;;8.00;7.30;;;;;;;2.84;80.44;100718.59;1821323;78;20926;-76
2021/12/04 04:22:56;;;;;;;8.15;7.45;;;;;;;2.82;80.39;100718.23;1821316;78;20929;-74
2021/12/04 04:25:23;;;;;;;6.72;6.12;;;;;;;2.79;80.44;100716.58;1821358;78;20880;-74
2021/12/04 04:27:51;;;;;;;7.75;7.05;;;;;;;2.79;80.52;100721.75;1821355;78;21006;-74
2021/12/04 04:30:19;;;;;;;6.75;6.22;;;;;;;2.76;80.46;100719.25;1821291;78;20930;-73
2021/12/04 04:32:48;;;;;;;6.87;6.15;;;;;;;2.72;80.49;100715.05;1821272;78;20927;-74
2021/12/04 04:35:17;;;;;;;8.43;7.65;;;;;;;2.69;80.59;100713.39;1821519;78;21485;-74
2021/12/04 04:37:59;;;;;;;7.85;7.05;;;;;;;2.67;80.58;100707.39;1821535;78;21381;-75
2021/12/04 04:59:36;;;;;;;8.73;7.90;;;;;;;2.62;80.58;100735.57;1821407;78;21480;-75
2021/12/04 05:12:55;;;;;;;8.60;7.80;;;;;;;2.54;80.24;100765.55;1821517;78;20951;-74
2021/12/04 05:20:36;;;;;;;10.50;9.30;;;;;;;2.46;79.96;100777.36;1825171;78;21153;-75
2021/12/04 05:23:03;;;;;;;9.88;7.72;;;;;;;2.46;79.89;100782.99;1824944;78;20884;-75
2021/12/04 05:25:31;;;;;;;10.50;8.00;;;;;;;2.47;79.95;100780.38;1824998;78;20907;-76
2021/12/04 05:27:58;;;;;;;8.70;7.78;;;;;;;2.49;79.92;100785.08;1824852;78;21354;-74
2021/12/04 05:30:25;;;;;;;8.40;7.60;;;;;;;2.50;79.79;100783.33;1825194;78;20903;-75
2021/12/04 05:32:52;;;;;;;8.20;7.40;;;;;;;2.53;79.70;100786.28;1824736;78;21994;-76
2021/12/04 05:35:19;;;;;;;7.22;6.58;;;;;;;2.54;79.40;100794.02;1825202;78;20912;-76
2021/12/04 05:37:45;;;;;;;8.85;7.95;;;;;;;2.57;78.99;100791.34;1824858;78;20919;-75
2021/12/04 05:40:14;;;;;;;8.18;7.47;;;;;;;2.59;78.85;100787.44;1824764;78;21482;-77
2021/12/04 05:42:42;;;;;;;10.15;7.17;;;;;;;2.63;78.77;100799.42;1824958;78;21002;-77
2021/12/04 05:45:22;;;;;;;9.73;8.55;;;;;;;2.68;78.58;100797.11;1825110;78;21527;-77
2021/12/04 05:47:45;;;;;;;10.10;8.33;;;;;;;2.71;78.46;100794.89;1822367;78;20883;-76
2021/12/04 05:55:21;;;;;;;10.80;7.80;;;;;;;2.68;77.92;100803.59;1825114;78;20959;-75
2021/12/04 05:57:49;;;;;;;9.00;8.05;;;;;;;2.68;77.85;100804.88;1824826;78;22025;-74
2021/12/04 06:00:21;;;;;;;11.22;7.75;;;;;;;2.73;77.88;100805.22;1825179;78;20919;-76
2021/12/04 06:02:49;;;;;;;8.90;8.00;;;;;;;2.72;77.79;100800.94;1824974;78;21281;-74
2021/12/04 06:05:17;;;;;;;7.78;6.97;;;;;;;2.69;77.52;100797.53;1825047;78;20875;-76
2021/12/04 06:07:44;;;;;;;8.60;7.62;;;;;;;2.67;77.55;100794.58;1825040;78;20927;-76
2021/12/04 06:10:11;;;;;;;8.35;7.42;;;;;;;2.64;77.30;100797.23;1825116;78;21488;-75
2021/12/04 06:12:38;;;;;;;9.08;7.72;;;;;;;2.61;77.20;100803.79;1824772;78;21398;-74
2021/12/04 06:15:07;;;;;;;9.93;8.05;;;;;;;2.60;77.19;100816.30;1824708;78;20919;-76
2021/12/04 06:17:34;;;;;;;10.32;8.45;;;;;;;2.60;77.30;100817.18;1824814;78;20974;-74
2021/12/04 06:22:47;;;;;;;8.85;7.92;;;;;;;2.60;77.35;100815.02;1824878;78;21204;-75
2021/12/04 06:25:19;;;;;;;9.00;8.10;;;;;;;2.59;77.24;100824.97;1824816;78;20916;-74
2021/12/04 06:27:46;;;;;;;7.47;6.70;;;;;;;2.61;77.37;100821.91;1824892;78;20860;-75
2021/12/04 06:30:15;;;;;;;9.55;8.00;;;;;;;2.61;77.17;100818.88;1825076;78;21534;-74
2021/12/04 06:32:43;;;;;;;8.63;7.78;;;;;;;2.62;77.06;100810.23;1824914;78;20931;-75
2021/12/04 06:35:11;;;;;;;10.78;8.23;;;;;;;2.66;76.80;100823.94;1825220;78;21157;-75
2021/12/04 06:37:38;;;;;;;7.55;6.70;;;;;;;2.67;76.52;100823.06;1824725;78;20963;-76
2021/12/04 06:40:06;;;;;;;7.45;6.75;;;;;;;2.67;76.52;100829.09;1824792;78;21388;-75
2021/12/04 06:42:33;;;;;;;9.45;7.42;;;;;;;2.66;76.16;100837.72;1824700;78;20955;-76
2021/12/04 06:45:01;;;;;;;9.80;7.05;;;;;;;2.64;75.81;100828.30;1824692;78;21017;-75
2021/12/04 06:47:30;;;;;;;8.53;7.15;;;;;;;2.61;75.68;100829.67;1825055;78;21101;-75
2021/12/04 06:50:03;;;;;;;12.98;8.65;;;;;;;2.60;75.76;100837.02;1824741;78;20907;-76
2021/12/04 06:52:28;;;;;;;9.00;8.03;;;;;;;2.62;75.73;100836.54;1824334;78;21349;-75
2021/12/04 06:54:57;;;;;;;8.20;7.30;;;;;;;2.60;75.15;100841.78;1824702;78;21412;-76
2021/12/04 06:57:23;;;;;;;8.30;7.55;;;;;;;2.55;75.01;100847.48;1825318;78;21396;-75
2021/12/04 06:59:52;;;;;;;8.48;7.65;;;;;;;2.53;75.02;100853.59;1824755;78;21206;-75
2021/12/04 07:02:19;;;;;;;7.78;7.05;;;;;;;2.51;75.05;100851.02;1825168;78;20856;-76
2021/12/04 07:04:46;;;;;;;8.15;7.35;;;;;;;2.52;74.93;100851.90;1824844;78;20927;-76
2021/12/04 07:07:13;;;;;;;7.15;6.35;;;;;;;2.50;74.70;100855.80;1824975;78;20900;-75
2021/12/04 07:09:40;;;;;;;7.00;6.30;;;;;;;2.48;74.53;100859.71;1825018;78;20915;-82
2021/12/04 07:12:09;;;;;;;7.92;6.75;;;;;;;2.51;74.60;100859.23;1825202;78;21105;-82
2021/12/04 07:14:36;;;;;;;9.20;7.20;;;;;;;2.56;74.68;100853.53;1824422;78;20983;-77
2021/12/04 07:17:04;;;;;;;11.35;8.78;;;;;;;2.59;74.40;100851.70;1821540;78;20994;-81
2021/12/04 07:19:32;;;;;;;10.95;8.73;;;;;;;2.64;74.11;100856.33;1821277;78;20935;-81
2021/12/04 07:21:59;;;;;;;10.68;9.03;;;;;;;2.68;73.76;100862.30;1821557;78;21386;-78
2021/12/04 07:24:26;;;;;;;11.48;8.95;;;;;;;2.75;73.47;100862.55;1821517;78;20908;-79
2021/12/04 07:26:53;;;;;;;12.60;7.97;;;;;;;2.80;73.04;100862.44;1821635;78;20919;-79
2021/12/04 07:29:20;;;;;;;8.40;6.45;;;;;;;2.78;72.70;100866.80;1821699;78;21495;-79
2021/12/04 07:31:47;;;;;;;8.85;6.78;;;;;;;2.78;72.32;100863.80;1821235;78;21032;-79
2021/12/04 07:34:14;;;;;;;9.48;6.50;;;;;;;2.78;72.49;100857.31;1821431;78;20978;-79
2021/12/04 07:36:41;;;;;;;7.05;6.35;;;;;;;2.78;72.35;100852.56;1821541;78;21092;-78
2021/12/04 07:39:08;;;;;;;7.92;6.97;;;;;;;2.77;72.20;100858.19;1821575;78;20907;-80
2021/12/04 07:41:38;;;;;;;8.70;6.33;;;;;;;2.77;72.41;100855.59;1821511;78;20931;-79
2021/12/04 07:44:04;;;;;;;7.90;5.70;;;;;;;2.77;72.38;100856.89;1821119;78;20997;-80
2021/12/04 07:46:31;;;;;;;8.40;6.90;;;;;;;2.82;72.46;100859.38;1821758;78;20911;-79
2021/12/04 07:48:58;;;;;;;8.43;6.50;;;;;;;2.85;72.45;100858.86;1821414;78;21397;-78
2021/12/04 07:51:25;;;;;;;7.67;6.62;;;;;;;2.93;72.63;100847.45;1821381;78;20994;-81
2021/12/04 07:53:52;;;;;;;7.17;6.45;;;;;;;2.96;72.37;100854.72;1821337;78;21053;-79
2021/12/04 07:56:19;;;;;;;8.75;7.40;;;;;;;2.98;72.44;100854.66;1821267;78;20935;-80
2021/12/04 07:58:46;;;;;;;7.42;6.60;;;;;;;2.96;72.57;100863.79;1821146;78;21545;-77
2021/12/04 08:01:13;;;;;;;8.43;6.85;;;;;;;2.96;72.46;100854.72;1821299;78;21127;-78
2021/12/04 08:03:40;;;;;;;7.08;6.37;;;;;;;2.95;72.28;100851.70;1821133;78;21409;-79
2021/12/04 08:06:07;;;;;;;6.50;5.90;;;;;;;2.93;72.34;100850.89;1821418;78;21412;-79
2021/12/04 08:08:34;;;;;;;7.37;6.22;;;;;;;2.97;72.15;100849.94;1821395;78;21353;-77
2021/12/04 08:11:02;;;;;;;7.33;6.30;;;;;;;3.03;72.34;100848.94;1821471;78;20883;-77
2021/12/04 08:13:29;;;;;;;9.20;7.10;;;;;;;3.03;71.92;100851.08;1821257;78;21283;-77
2021/12/04 08:15:56;;;;;;;6.47;5.87;;;;;;;2.98;72.10;100849.48;1822980;78;20913;-77
2021/12/04 08:18:23;;;;;;;7.58;6.78;;;;;;;2.94;72.29;100839.66;1824838;78;20950;-78
2021/12/04 08:20:50;;;;;;;10.05;7.10;;;;;;;2.92;72.46;100836.25;1824621;78;20900;-78
2021/12/04 08:23:17;;;;;;;7.42;6.17;;;;;;;2.93;72.36;100835.35;1824890;78;20919;-77
2021/12/04 08:25:46;;;;;;;9.08;6.62;;;;;;;2.93;72.28;100831.47;1824786;77;21134;-77
2021/12/04 08:28:13;;;;;;;6.67;5.97;;;;;;;2.91;72.35;100826.77;1825234;77;21356;-80
2021/12/04 08:30:40;;;;;;;7.55;6.75;;;;;;;2.88;72.40;100822.97;1825039;77;20884;-79
2021/12/04 08:33:09;;;;;;;9.88;6.53;;;;;;;2.93;72.37;100825.44;1824955;77;20888;-80
2021/12/04 08:35:40;;;;;;;9.60;6.85;;;;;;;2.92;72.19;100826.34;1824802;77;21081;-78
2021/12/04 08:38:11;;;;;;;7.10;6.08;;;;;;;2.91;72.24;100820.29;1825091;78;21164;-81
2021/12/04 08:40:39;;;;;;;7.17;5.60;;;;;;;2.93;71.98;100824.15;1824999;78;20871;-77
2021/12/04 08:43:06;;;;;;;7.28;6.28;;;;;;;2.93;71.84;100815.92;1825078;78;21365;-76
2021/12/04 08:45:34;;;;;;;6.33;5.47;;;;;;;2.96;71.68;100815.87;1824847;77;21477;-80
2021/12/04 08:48:01;;;;;;;6.80;5.45;;;;;;;2.98;71.41;100810.20;1824903;78;20871;-81
2021/12/04 08:50:29;;;;;;;6.70;5.78;;;;;;;2.98;71.38;100808.03;1825162;77;21804;-78
2021/12/04 08:52:57;;;;;;;6.58;5.45;;;;;;;2.99;71.03;100799.39;1824967;78;20879;-77
2021/12/04 08:55:24;;;;;;;7.70;6.25;;;;;;;2.97;70.98;100788.22;1825108;78;20919;-75
2021/12/04 08:57:51;;;;;;;6.62;5.17;;;;;;;2.97;71.02;100786.47;1825247;78;20848;-76
2021/12/04 09:00:34;;;;;;;6.72;5.87;;;;;;;2.99;70.89;100780.80;1825152;77;20919;-73
2021/12/04 09:03:02;;;;;;;7.47;5.42;;;;;;;2.97;70.52;100772.22;1826938;78;21150;-78
2021/12/04 09:05:29;;;;;;;9.05;5.92;;;;;;;2.97;70.65;100774.81;1828323;77;21278;-79
2021/12/04 09:07:56;;;;;;;8.98;5.85;;;;;;;2.99;70.57;100763.97;1828418;78;20872;-78
2021/12/04 09:10:23;;;;;;;7.75;5.60;;;;;;;3.02;70.56;100764.33;1828138;78;20947;-76
2021/12/04 09:12:51;;;;;;;6.35;5.62;;;;;;;3.04;70.84;100763.84;1828422;78;20872;-78
2021/12/04 09:15:22;;;;;;;5.62;4.97;;;;;;;3.10;71.01;100761.09;1826260;78;21478;-79
2021/12/04 09:17:49;;;;;;;7.37;5.78;;;;;;;3.17;70.93;100769.10;1821850;78;20971;-78
2021/12/04 09:20:16;;;;;;;6.58;5.85;;;;;;;3.18;70.71;100765.63;1821879;78;20994;-79
2021/12/04 09:22:45;;;;;;;7.33;6.58;;;;;;;3.23;70.55;100768.10;1821823;78;20923;-78
2021/12/04 09:25:16;;;;;;;6.20;5.70;;;;;;;3.24;70.41;100767.19;1821959;78;21515;-77
2021/12/04 09:30:47;;;;;;;;;;;;;;;3.32;70.48;100766.09;1821600;78;20919;-76
2021/12/04 09:33:40;;;;;;;7.03;6.15;;;;;;;3.35;70.43;100760.42;1816990;78;20117;-76
2021/12/04 10:13:49;;;;;;;6.78;6.00;;;;;;;3.36;70.16;100748.73;1821487;78;20927;-78
2021/12/04 10:16:44;;;;;;;7.70;5.35;;;;;;;3.38;70.13;100749.53;1818721;78;21301;-79
2021/12/04 10:19:14;;;;;;;5.92;5.42;;;;;;;3.39;70.10;100749.08;1820847;78;20869;-77
2021/12/04 10:21:44;;;;;;;7.42;5.05;;;;;;;3.38;70.20;100735.28;1822319;78;21147;-80
2021/12/04 10:32:37;;;;;;;6.42;5.80;;;;;;;3.38;69.86;100714.55;1824928;78;20879;-78
2021/12/04 10:35:18;;;;;;;6.97;6.28;;;;;;;3.39;69.78;100710.20;1823195;78;21878;-76
2021/12/04 10:37:59;;;;;;;6.42;5.65;;;;;;;3.42;69.80;100706.20;1824775;78;20911;-75
2021/12/04 10:40:40;;;;;;;9.20;5.45;;;;;;;3.47;69.67;100695.28;1824861;78;20903;-75
2021/12/04 10:43:16;;;;;;;7.60;5.97;;;;;;;3.48;69.39;100699.55;1824926;78;20853;-75
2021/12/04 10:45:52;;;;;;;5.70;4.35;;;;;;;3.42;69.09;100701.87;1824546;78;21057;-75
2021/12/04 10:48:24;;;;;;;4.70;4.28;;;;;;;3.38;69.37;100694.23;1824925;78;21581;-76
2021/12/04 10:53:28;;;;;;;6.25;5.25;;;;;;;3.37;69.73;100693.84;1824916;78;20920;-76
2021/12/04 11:04:40;;;;;;;8.65;5.50;;;;;;;3.62;69.11;100674.05;1824996;78;20914;-80
2021/12/04 11:26:35;;;;;;;12.20;9.50;;;;;;;3.36;69.10;100676.58;1825067;78;20947;-79
2021/12/04 11:37:44;;;;;;;7.15;6.33;;;;;;;3.22;69.97;100666.16;1824875;78;20887;-77
2021/12/04 11:44:56;;;;;;;7.53;5.67;;;;;;;3.23;69.72;100668.33;1824651;78;20856;-78
2021/12/04 11:47:17;;;;;;;6.78;5.53;;;;;;;3.18;69.67;100664.58;1822576;78;21406;-76
2021/12/04 11:49:44;;;;;;;6.22;5.50;;;;;;;3.16;69.86;100662.89;1824726;78;20839;-76
2021/12/04 11:52:18;;;;;;;6.40;5.67;;;;;;;3.16;69.86;100673.26;1824995;78;21401;-77
2021/12/04 11:55:00;;;;;;;6.53;5.78;;;;;;;3.14;70.00;100668.59;1824580;78;21146;-76
2021/12/04 11:57:35;;;;;;;6.78;5.75;;;;;;;3.11;70.12;100665.20;1824776;78;20923;-78
2021/12/04 12:00:24;;;;;;;7.70;5.30;;;;;;;3.09;70.24;100663.09;1825391;78;20923;-78
2021/12/04 12:02:52;;;;;;;5.25;4.75;;;;;;;3.10;70.23;100667.37;1824914;78;21452;-75
2021/12/04 12:05:22;;;;;;;8.23;6.35;;;;;;;3.12;70.18;100664.74;1824706;78;21386;-75
2021/12/04 12:07:54;;;;;;;8.53;5.35;;;;;;;3.14;70.26;100669.89;1825924;78;21165;-75
2021/12/04 12:10:26;;;;;;;7.58;6.05;;;;;;;3.16;70.20;100668.08;1825211;78;21434;-73
2021/12/04 12:12:56;;;;;;;8.78;5.83;;;;;;;3.14;70.10;100674.63;1824954;78;20895;-74
2021/12/04 12:15:32;;;;;;;7.83;6.00;;;;;;;3.10;70.20;100681.63;1824921;78;20892;-73
2021/12/04 12:18:17;;;;;;;9.08;6.33;;;;;;;3.08;70.38;100683.41;1821767;78;20923;-76
2021/12/04 12:20:57;;;;;;;7.20;5.87;;;;;;;3.07;70.46;100683.47;1821695;78;21121;-77
2021/12/04 12:23:16;;;;;;;8.00;5.65;;;;;;;3.07;70.46;100680.87;1816675;78;20940;-77
2021/12/04 12:37:22;;;;;;;9.80;6.22;;;;;;;3.09;70.63;100666.98;1758373;81;21439;-76
2021/12/04 12:40:02;;;;;;;8.83;6.90;;;;;;;3.15;70.60;100665.09;1758207;80;20979;-77
2021/12/04 12:42:36;;;;;;;9.10;6.85;;;;;;;3.16;70.51;100666.78;1725137;83;20939;-76
2021/12/04 12:45:27;;;;;;;;;;;;;;;3.13;70.30;100663.84;1727214;82;20868;-77
2021/12/04 12:48:07;;;;;;;9.35;6.28;;;;;;;3.08;70.29;100660.08;1711202;84;20086;-77
2021/12/04 12:50:39;;;;;;;7.47;6.03;;;;;;;3.06;70.47;100661.02;1711123;83;21120;-77
2021/12/04 12:53:13;;;;;;;7.35;6.05;;;;;;;3.06;70.50;100659.73;1722197;83;21631;-76
2021/12/04 12:55:41;;;;;;;7.92;6.70;;;;;;;3.04;70.62;100658.92;1722318;83;21463;-77
2021/12/04 12:58:26;;;;;;;6.67;6.03;;;;;;;3.04;70.97;100666.69;1722337;83;20912;-76
2021/12/04 13:12:08;;;;;;;7.28;6.58;;;;;;;2.94;71.69;100682.11;1722312;83;20398;-76
2021/12/04 13:14:46;;;;;;;7.10;6.37;;;;;;;2.93;71.85;100685.12;1722620;82;20921;-75
2021/12/04 13:17:26;;;;;;;9.70;6.95;;;;;;;2.91;71.98;100680.42;1722253;83;21750;-77
2021/12/04 13:19:56;;;;;;;9.05;6.75;;;;;;;2.88;72.05;100689.13;1722450;82;20980;-77
2021/12/04 13:22:28;;;;;;;10.70;8.13;;;;;;;2.87;72.33;100684.86;1722149;83;21453;-77
2021/12/04 13:24:58;;;;;;;8.05;6.35;;;;;;;2.87;72.39;100693.08;1722098;83;20903;-78
2021/12/04 13:30:03;;;;;;;8.23;7.40;;;;;;;2.77;72.48;100687.28;1719878;83;21171;-77
2021/12/04 13:32:39;;;;;;;10.60;7.95;;;;;;;2.77;72.54;100695.50;1717815;83;20948;-76
2021/12/04 13:35:13;;;;;;;6.45;5.58;;;;;;;2.77;72.58;100687.28;1717923;83;21038;-79
2021/12/04 13:37:40;;;;;;;9.95;7.28;;;;;;;2.78;72.77;100692.88;1717881;83;26975;-79
2021/12/04 13:40:13;;;;;;;9.73;7.20;;;;;;;2.78;72.98;100690.29;1718199;83;20864;-76
2021/12/04 13:42:40;;;;;;;10.48;7.65;;;;;;;2.81;73.02;100683.72;1717349;83;21851;-77
2021/12/04 13:45:11;;;;;;;10.15;7.65;;;;;;;2.83;72.89;100681.10;1717458;83;21378;-76
2021/12/04 13:47:40;;;;;;;11.03;7.65;;;;;;;2.83;72.80;100681.10;1717387;83;20956;-77
2021/12/04 13:53:03;;;;;;;9.00;6.75;;;;;;;2.81;72.56;100687.60;1717302;83;20955;-78
2021/12/04 13:55:34;;;;;;;8.28;6.80;;;;;;;2.78;72.60;100681.23;1717410;83;21793;-78
2021/12/04 13:58:05;;;;;;;11.10;7.70;;;;;;;2.77;72.79;100679.51;1717169;83;20987;-76
2021/12/04 14:00:31;;;;;;;10.63;7.33;;;;;;;2.73;72.90;100675.75;1717616;83;20980;-77
2021/12/04 14:02:58;;;;;;;8.05;7.05;;;;;;;2.68;73.17;100678.02;1717275;83;20928;-77
2021/12/04 14:05:25;;;;;;;7.83;7.03;;;;;;;2.67;73.25;100669.02;1722181;83;20892;-78
2021/12/04 14:07:58;;;;;;;12.05;7.75;;;;;;;2.64;73.39;100665.19;1721970;82;21169;-76
2021/12/04 14:10:31;;;;;;;10.15;8.20;;;;;;;2.61;73.38;100675.64;1722095;83;20927;-75
2021/12/04 14:12:59;;;;;;;8.65;7.35;;;;;;;2.59;73.52;100669.65;1721786;83;20880;-77
2021/12/04 14:15:27;;;;;;;7.80;6.62;;;;;;;2.60;73.62;100668.33;1721884;82;21381;-77
2021/12/04 14:18:02;;;;;;;12.13;7.60;;;;;;;2.59;73.69;100674.37;1721864;82;20931;-76
2021/12/04 14:20:30;;;;;;;10.28;7.17;;;;;;;2.59;73.85;100664.47;1722073;83;21076;-78
2021/12/04 14:22:57;;;;;;;10.05;8.30;;;;;;;2.58;74.05;100665.34;1721870;83;20876;-76
2021/12/04 14:25:25;;;;;;;10.23;8.35;;;;;;;2.58;74.11;100668.81;1722049;83;20919;-77
2021/12/04 14:27:53;;;;;;;9.88;8.45;;;;;;;2.58;74.12;100667.52;1722043;83;20971;-78
2021/12/04 14:30:23;;;;;;;11.48;8.53;;;;;;;2.59;74.13;100671.78;1720263;83;21100;-78
2021/12/04 14:32:53;;;;;;;14.33;9.13;;;;;;;2.58;74.21;100679.58;1716434;82;21143;-76
2021/12/04 14:35:23;;;;;;;11.57;8.70;;;;;;;2.52;74.20;100675.43;1734059;82;21461;-77
2021/12/04 14:37:53;;;;;;;11.70;8.15;;;;;;;2.51;74.19;100665.11;1752805;81;20889;-76
2021/12/04 14:40:33;;;;;;;9.85;8.20;;;;;;;2.44;74.32;100670.88;1752616;80;20960;-76
2021/12/04 14:43:05;;;;;;;12.93;8.55;;;;;;;2.40;74.59;100673.14;1752430;81;20916;-76
2021/12/04 14:45:34;;;;;;;10.45;8.25;;;;;;;2.39;74.85;100680.52;1716626;83;21770;-77
2021/12/04 14:48:11;;;;;;;11.53;8.53;;;;;;;2.41;74.75;100669.69;1716613;82;20947;-77
2021/12/04 14:50:41;;;;;;;10.78;7.97;;;;;;;2.40;74.64;100669.26;1716454;83;20868;-78